sensor_id;sensor_type;location;lat;lon;timestamp;pressure;altitude;pressure_sealevel;temperature;humidity
76847;BME280;65813;49.546;8.644;2023-11-19T04:47:11;100382.56;;;9.39;100.00
76847;BME280;65813;49.546;8.644;2023-11-19T04:51:12;100370.84;;;9.41;100.00
76847;BME280;65813;49.546;8.644;2023-11-19T04:55:12;100364.50;;;9.44;100.00
76847;BME280;65813;49.546;8.644;2023-11-19T04:59:14;100368.66;;;9.48;100.00
76847;BME280;65813;49.546;8.644;2023-11-19T05:03:14;100370.09;;;9.52;100.00
76847;BME280;65813;49.546;8.644;2023-11-19T05:07:15;100382.75;;;9.48;100.00
76847;BME280;65813;49.546;8.644;2023-11-19T05:11:15;100396.31;;;9.58;100.00
76847;BME280;65813;49.546;8.644;2023-11-19T05:15:19;100395.53;;;9.56;100.00
76847;BME280;65813;49.546;8.644;2023-11-19T05:19:19;100394.59;;;9.57;100.00
76847;BME280;65813;49.546;8.644;2023-11-19T05:23:20;100385.22;;;9.64;100.00
76847;BME280;65813;49.546;8.644;2023-11-19T05:27:20;100389.91;;;9.60;100.00
76847;BME280;65813;49.546;8.644;2023-11-19T05:31:20;100382.44;;;9.65;100.00
76847;BME280;65813;49.546;8.644;2023-11-19T05:35:21;100381.63;;;9.65;100.00
76847;BME280;65813;49.546;8.644;2023-11-19T05:39:21;100380.25;;;9.72;100.00
76847;BME280;65813;49.546;8.644;2023-11-19T05:43:22;100369.38;;;9.75;100.00
76847;BME280;65813;49.546;8.644;2023-11-19T05:47:22;100362.97;;;9.78;100.00
76847;BME280;65813;49.546;8.644;2023-11-19T05:51:22;100360.09;;;9.81;100.00
76847;BME280;65813;49.546;8.644;2023-11-19T05:55:24;100354.47;;;9.85;100.00
76847;BME280;65813;49.546;8.644;2023-11-19T05:59:24;100349.66;;;9.90;100.00
76847;BME280;65813;49.546;8.644;2023-11-19T06:03:25;100342.13;;;9.84;100.00
76847;BME280;65813;49.546;8.644;2023-11-19T06:07:25;100343.78;;;9.98;100.00
76847;BME280;65813;49.546;8.644;2023-11-19T06:11:25;100344.88;;;9.95;100.00
76847;BME280;65813;49.546;8.644;2023-11-19T06:15:27;100352.50;;;10.00;100.00
76847;BME280;65813;49.546;8.644;2023-11-19T06:19:27;100354.34;;;9.99;100.00
76847;BME280;65813;49.546;8.644;2023-11-19T06:23:29;100370.28;;;10.12;100.00
76847;BME280;65813;49.546;8.644;2023-11-19T06:27:29;100362.09;;;10.15;100.00
76847;BME280;65813;49.546;8.644;2023-11-19T06:31:29;100360.28;;;10.16;100.00
76847;BME280;65813;49.546;8.644;2023-11-19T06:35:29;100358.66;;;10.13;100.00
76847;BME280;65813;49.546;8.644;2023-11-19T06:39:36;100358.03;;;10.09;100.00
76847;BME280;65813;49.546;8.644;2023-11-19T06:43:37;100365.59;;;10.16;100.00
76847;BME280;65813;49.546;8.644;2023-11-19T06:47:37;100375.94;;;10.20;100.00
76847;BME280;65813;49.546;8.644;2023-11-19T06:51:42;100384.25;;;10.16;100.00
76847;BME280;65813;49.546;8.644;2023-11-19T06:55:43;100394.00;;;10.28;100.00
76847;BME280;65813;49.546;8.644;2023-11-19T06:59:44;100401.25;;;10.26;100.00
76847;BME280;65813;49.546;8.644;2023-11-19T07:03:48;100408.78;;;10.32;100.00
76847;BME280;65813;49.546;8.644;2023-11-19T07:07:48;100414.03;;;10.33;100.00
76847;BME280;65813;49.546;8.644;2023-11-19T07:11:49;100431.81;;;10.33;100.00
76847;BME280;65813;49.546;8.644;2023-11-19T07:15:51;100420.25;;;10.45;100.00
76847;BME280;65813;49.546;8.644;2023-11-19T07:19:52;100421.09;;;10.45;100.00
76847;BME280;65813;49.546;8.644;2023-11-19T07:23:52;100413.28;;;10.55;100.00
76847;BME280;65813;49.546;8.644;2023-11-19T07:27:53;100413.97;;;10.46;100.00
76847;BME280;65813;49.546;8.644;2023-11-19T07:31:53;100423.75;;;10.58;100.00
76847;BME280;65813;49.546;8.644;2023-11-19T07:35:55;100421.91;;;10.58;100.00
76847;BME280;65813;49.546;8.644;2023-11-19T07:39:56;100422.00;;;10.70;100.00
76847;BME280;65813;49.546;8.644;2023-11-19T07:43:56;100422.00;;;10.70;100.00
76847;BME280;65813;49.546;8.644;2023-11-19T07:47:57;100414.41;;;10.76;100.00
76847;BME280;65813;49.546;8.644;2023-11-19T07:51:57;100423.88;;;10.80;100.00
76847;BME280;65813;49.546;8.644;2023-11-19T07:55:57;100421.50;;;10.88;100.00
76847;BME280;65813;49.546;8.644;2023-11-19T07:59:59;100431.31;;;10.88;100.00
76847;BME280;65813;49.546;8.644;2023-11-19T08:04:01;100438.84;;;10.94;100.00
76847;BME280;65813;49.546;8.644;2023-11-19T08:08:02;100434.50;;;10.93;100.00
76847;BME280;65813;49.546;8.644;2023-11-19T08:12:03;100421.03;;;10.94;100.00
76847;BME280;65813;49.546;8.644;2023-11-19T08:16:04;100440.66;;;10.93;100.00
76847;BME280;65813;49.546;8.644;2023-11-19T08:20:05;100449.22;;;10.86;100.00
76847;BME280;65813;49.546;8.644;2023-11-19T08:24:10;100459.75;;;10.87;100.00
76847;BME280;65813;49.546;8.644;2023-11-19T08:28:10;100460.22;;;10.81;100.00
76847;BME280;65813;49.546;8.644;2023-11-19T08:32:11;100445.19;;;10.80;100.00
76847;BME280;65813;49.546;8.644;2023-11-19T08:36:17;100431.53;;;10.85;100.00
76847;BME280;65813;49.546;8.644;2023-11-19T08:40:18;100434.06;;;10.86;100.00
76847;BME280;65813;49.546;8.644;2023-11-19T08:44:18;100431.69;;;10.94;100.00
76847;BME280;65813;49.546;8.644;2023-11-19T08:48:19;100438.28;;;11.01;100.00
76847;BME280;65813;49.546;8.644;2023-11-19T08:52:20;100444.38;;;11.14;100.00
76847;BME280;65813;49.546;8.644;2023-11-19T08:56:20;100450.91;;;11.10;100.00
76847;BME280;65813;49.546;8.644;2023-11-19T09:00:21;100451.44;;;11.15;100.00
76847;BME280;65813;49.546;8.644;2023-11-19T09:04:21;100464.28;;;11.22;100.00
76847;BME280;65813;49.546;8.644;2023-11-19T09:08:22;100457.16;;;11.22;100.00
76847;BME280;65813;49.546;8.644;2023-11-19T09:12:23;100465.53;;;11.29;100.00
76847;BME280;65813;49.546;8.644;2023-11-19T09:16:23;100467.97;;;11.32;100.00
76847;BME280;65813;49.546;8.644;2023-11-19T09:20:24;100472.13;;;11.36;100.00
76847;BME280;65813;49.546;8.644;2023-11-19T09:24:25;100462.72;;;11.54;100.00
76847;BME280;65813;49.546;8.644;2023-11-19T09:28:25;100457.94;;;11.35;100.00
76847;BME280;65813;49.546;8.644;2023-11-19T09:32:26;100446.63;;;11.32;100.00
76847;BME280;65813;49.546;8.644;2023-11-19T09:36:26;100434.34;;;11.53;100.00
76847;BME280;65813;49.546;8.644;2023-11-19T09:40:27;100455.91;;;11.50;100.00
76847;BME280;65813;49.546;8.644;2023-11-19T09:44:28;100436.19;;;11.63;100.00
76847;BME280;65813;49.546;8.644;2023-11-19T09:48:30;100443.84;;;11.68;100.00
76847;BME280;65813;49.546;8.644;2023-11-19T09:52:32;100443.16;;;11.77;100.00
76847;BME280;65813;49.546;8.644;2023-11-19T09:56:33;100451.16;;;11.77;100.00
76847;BME280;65813;49.546;8.644;2023-11-19T10:00:33;100446.06;;;11.74;100.00
76847;BME280;65813;49.546;8.644;2023-11-19T10:04:35;100433.81;;;11.83;100.00
76847;BME280;65813;49.546;8.644;2023-11-19T10:08:37;100434.69;;;11.72;100.00
76847;BME280;65813;49.546;8.644;2023-11-19T10:12:39;100439.41;;;11.91;100.00
76847;BME280;65813;49.546;8.644;2023-11-19T10:16:40;100430.31;;;11.82;100.00
76847;BME280;65813;49.546;8.644;2023-11-19T10:20:41;100413.69;;;12.01;100.00
76847;BME280;65813;49.546;8.644;2023-11-19T10:24:41;100422.34;;;12.27;100.00
76847;BME280;65813;49.546;8.644;2023-11-19T10:28:42;100423.44;;;12.13;100.00
76847;BME280;65813;49.546;8.644;2023-11-19T10:32:46;100430.84;;;12.09;100.00
76847;BME280;65813;49.546;8.644;2023-11-19T10:36:47;100433.22;;;12.35;99.73
76847;BME280;65813;49.546;8.644;2023-11-19T10:40:48;100418.41;;;12.42;99.69
76847;BME280;65813;49.546;8.644;2023-11-19T10:44:49;100411.88;;;12.89;97.58
76847;BME280;65813;49.546;8.644;2023-11-19T10:48:50;100424.38;;;12.99;96.23
76847;BME280;65813;49.546;8.644;2023-11-19T10:52:54;100419.34;;;13.38;90.89
76847;BME280;65813;49.546;8.644;2023-11-19T10:56:59;100403.44;;;13.57;90.30
76847;BME280;65813;49.546;8.644;2023-11-19T11:01:08;100401.59;;;13.78;89.80
76847;BME280;65813;49.546;8.644;2023-11-19T11:05:12;100404.41;;;13.77;88.90
76847;BME280;65813;49.546;8.644;2023-11-19T11:09:14;100406.63;;;13.92;88.93
76847;BME280;65813;49.546;8.644;2023-11-19T11:13:15;100403.50;;;13.46;89.54
76847;BME280;65813;49.546;8.644;2023-11-19T11:17:17;100400.19;;;13.33;90.35
76847;BME280;65813;49.546;8.644;2023-11-19T11:21:21;100392.69;;;13.47;89.07
76847;BME280;65813;49.546;8.644;2023-11-19T11:25:36;100385.84;;;13.34;90.63
76847;BME280;65813;49.546;8.644;2023-11-19T11:29:52;100380.56;;;13.11;91.99
76847;BME280;65813;49.546;8.644;2023-11-19T11:34:40;100386.09;;;13.31;90.25
76847;BME280;65813;49.546;8.644;2023-11-19T11:38:48;100386.41;;;13.17;92.06
76847;BME280;65813;49.546;8.644;2023-11-19T11:42:49;100386.59;;;12.93;94.27
76847;BME280;65813;49.546;8.644;2023-11-19T11:46:55;100391.84;;;12.83;94.32
76847;BME280;65813;49.546;8.644;2023-11-19T11:50:57;100385.50;;;12.95;95.85
76847;BME280;65813;49.546;8.644;2023-11-19T11:55:04;100373.91;;;13.06;94.83
76847;BME280;65813;49.546;8.644;2023-11-19T11:59:18;100387.34;;;12.84;94.94
76847;BME280;65813;49.546;8.644;2023-11-19T12:03:21;100377.72;;;12.92;94.63
76847;BME280;65813;49.546;8.644;2023-11-19T12:07:24;100386.16;;;12.77;94.86
76847;BME280;65813;49.546;8.644;2023-11-19T12:11:25;100385.53;;;12.84;95.50
76847;BME280;65813;49.546;8.644;2023-11-19T12:15:27;100377.72;;;12.92;94.70
76847;BME280;65813;49.546;8.644;2023-11-19T12:19:29;100369.81;;;12.91;91.83
76847;BME280;65813;49.546;8.644;2023-11-19T12:23:29;100367.66;;;12.85;92.89
76847;BME280;65813;49.546;8.644;2023-11-19T12:27:30;100374.94;;;12.83;93.08
76847;BME280;65813;49.546;8.644;2023-11-19T12:31:30;100368.63;;;12.84;93.12
76847;BME280;65813;49.546;8.644;2023-11-19T12:35:31;100369.84;;;12.80;93.03
76847;BME280;65813;49.546;8.644;2023-11-19T12:39:32;100354.16;;;12.86;91.61
76847;BME280;65813;49.546;8.644;2023-11-19T12:43:32;100354.16;;;12.86;89.64
76847;BME280;65813;49.546;8.644;2023-11-19T12:47:40;100342.44;;;12.98;89.92
76847;BME280;65813;49.546;8.644;2023-11-19T12:51:40;100349.97;;;12.93;89.73
76847;BME280;65813;49.546;8.644;2023-11-19T12:55:41;100341.59;;;12.98;88.79
76847;BME280;65813;49.546;8.644;2023-11-19T12:59:41;100342.81;;;12.94;88.04
76847;BME280;65813;49.546;8.644;2023-11-19T13:03:43;100331.75;;;12.98;88.94
76847;BME280;65813;49.546;8.644;2023-11-19T13:07:43;100338.06;;;12.97;88.06
76847;BME280;65813;49.546;8.644;2023-11-19T13:11:44;100347.31;;;12.93;88.57
76847;BME280;65813;49.546;8.644;2023-11-19T13:15:46;100343.41;;;12.97;85.78
76847;BME280;65813;49.546;8.644;2023-11-19T13:19:47;100335.88;;;13.02;85.09
76847;BME280;65813;49.546;8.644;2023-11-19T13:23:48;100340.22;;;13.03;84.16
76847;BME280;65813;49.546;8.644;2023-11-19T13:27:48;100325.53;;;13.30;81.82
76847;BME280;65813;49.546;8.644;2023-11-19T13:31:48;100331.59;;;13.32;78.53
76847;BME280;65813;49.546;8.644;2023-11-19T13:35:49;100322.13;;;13.28;78.01
76847;BME280;65813;49.546;8.644;2023-11-19T13:39:50;100322.06;;;13.18;78.42
76847;BME280;65813;49.546;8.644;2023-11-19T13:43:50;100313.91;;;13.20;77.44
76847;BME280;65813;49.546;8.644;2023-11-19T13:47:50;100316.75;;;13.28;77.38
76847;BME280;65813;49.546;8.644;2023-11-19T13:51:51;100306.06;;;13.28;76.44
76847;BME280;65813;49.546;8.644;2023-11-19T13:55:54;100311.03;;;13.32;75.92
76847;BME280;65813;49.546;8.644;2023-11-19T13:59:54;100290.50;;;13.73;74.10
76847;BME280;65813;49.546;8.644;2023-11-19T14:03:54;100290.44;;;13.53;76.16
76847;BME280;65813;49.546;8.644;2023-11-19T14:07:55;100294.59;;;13.37;75.14
76847;BME280;65813;49.546;8.644;2023-11-19T14:11:56;100302.06;;;13.43;73.98
76847;BME280;65813;49.546;8.644;2023-11-19T14:15:57;100295.75;;;13.44;71.68
76847;BME280;65813;49.546;8.644;2023-11-19T14:19:57;100318.72;;;13.46;69.76
76847;BME280;65813;49.546;8.644;2023-11-19T14:23:57;100317.44;;;13.41;70.87
76847;BME280;65813;49.546;8.644;2023-11-19T14:27:59;100306.84;;;13.39;70.08
76847;BME280;65813;49.546;8.644;2023-11-19T14:32:00;100310.22;;;13.41;70.76
76847;BME280;65813;49.546;8.644;2023-11-19T14:36:01;100310.19;;;13.32;70.74
76847;BME280;65813;49.546;8.644;2023-11-19T14:40:02;100306.81;;;13.30;71.02
76847;BME280;65813;49.546;8.644;2023-11-19T14:44:06;100307.66;;;13.30;70.29
76847;BME280;65813;49.546;8.644;2023-11-19T14:48:06;100319.63;;;13.36;69.61
76847;BME280;65813;49.546;8.644;2023-11-19T14:52:07;100308.66;;;13.39;69.31
76847;BME280;65813;49.546;8.644;2023-11-19T14:56:12;100317.50;;;13.30;70.91
76847;BME280;65813;49.546;8.644;2023-11-19T15:00:13;100317.03;;;13.25;70.60
76847;BME280;65813;49.546;8.644;2023-11-19T15:04:14;100327.22;;;13.31;69.44
76847;BME280;65813;49.546;8.644;2023-11-19T15:08:14;100336.50;;;13.27;68.99
76847;BME280;65813;49.546;8.644;2023-11-19T15:12:16;100330.41;;;13.25;68.89
76847;BME280;65813;49.546;8.644;2023-11-19T15:16:17;100327.09;;;13.11;70.40
76847;BME280;65813;49.546;8.644;2023-11-19T15:20:24;100324.41;;;13.11;70.31
76847;BME280;65813;49.546;8.644;2023-11-19T15:24:26;100331.47;;;13.01;71.10
76847;BME280;65813;49.546;8.644;2023-11-19T15:28:26;100330.19;;;12.96;71.35
76847;BME280;65813;49.546;8.644;2023-11-19T15:32:26;100340.06;;;12.84;72.35
76847;BME280;65813;49.546;8.644;2023-11-19T15:36:27;100341.78;;;12.85;71.61
76847;BME280;65813;49.546;8.644;2023-11-19T15:40:27;100341.53;;;12.88;70.45
76847;BME280;65813;49.546;8.644;2023-11-19T15:44:28;100338.63;;;12.80;71.65
76847;BME280;65813;49.546;8.644;2023-11-19T15:48:29;100340.34;;;12.81;71.52
76847;BME280;65813;49.546;8.644;2023-11-19T15:52:29;100340.59;;;12.78;71.69
76847;BME280;65813;49.546;8.644;2023-11-19T15:56:31;100345.94;;;12.78;71.50
76847;BME280;65813;49.546;8.644;2023-11-19T16:00:32;100339.78;;;12.66;73.65
76847;BME280;65813;49.546;8.644;2023-11-19T16:04:32;100338.22;;;12.64;72.97
76847;BME280;65813;49.546;8.644;2023-11-19T16:08:32;100342.00;;;12.61;73.39
76847;BME280;65813;49.546;8.644;2023-11-19T16:12:33;100346.50;;;12.61;73.40
76847;BME280;65813;49.546;8.644;2023-11-19T16:16:33;100351.09;;;12.59;74.30
76847;BME280;65813;49.546;8.644;2023-11-19T16:20:34;100352.78;;;12.60;73.46
76847;BME280;65813;49.546;8.644;2023-11-19T16:24:34;100347.78;;;12.66;73.58
76847;BME280;65813;49.546;8.644;2023-11-19T16:28:35;100349.75;;;12.64;74.05
76847;BME280;65813;49.546;8.644;2023-11-19T16:32:47;100357.03;;;12.62;72.35
76847;BME280;65813;49.546;8.644;2023-11-19T16:36:48;100368.81;;;12.60;72.64
76847;BME280;65813;49.546;8.644;2023-11-19T16:40:49;100370.03;;;12.67;71.00
76847;BME280;65813;49.546;8.644;2023-11-19T16:44:51;100378.16;;;12.65;71.33
76847;BME280;65813;49.546;8.644;2023-11-19T16:48:52;100396.25;;;12.73;71.26
76847;BME280;65813;49.546;8.644;2023-11-19T16:52:52;100397.09;;;12.74;70.79
76847;BME280;65813;49.546;8.644;2023-11-19T16:56:56;100404.00;;;12.76;70.43
76847;BME280;65813;49.546;8.644;2023-11-19T17:00:57;100401.75;;;12.60;72.08
76847;BME280;65813;49.546;8.644;2023-11-19T17:04:57;100402.34;;;12.64;71.34
76847;BME280;65813;49.546;8.644;2023-11-19T17:08:58;100408.44;;;12.55;71.65
76847;BME280;65813;49.546;8.644;2023-11-19T17:12:58;100413.78;;;12.55;71.65
76847;BME280;65813;49.546;8.644;2023-11-19T17:16:58;100405.56;;;12.47;72.29
76847;BME280;65813;49.546;8.644;2023-11-19T17:20:59;100409.94;;;12.48;72.41
76847;BME280;65813;49.546;8.644;2023-11-19T17:25:01;100412.59;;;12.48;71.70
76847;BME280;65813;49.546;8.644;2023-11-19T17:29:02;100410.38;;;12.53;71.90
76847;BME280;65813;49.546;8.644;2023-11-19T17:33:04;100409.28;;;12.55;71.56
76847;BME280;65813;49.546;8.644;2023-11-19T17:37:05;100408.69;;;12.52;71.59
76847;BME280;65813;49.546;8.644;2023-11-19T17:41:05;100401.16;;;12.57;71.30
76847;BME280;65813;49.546;8.644;2023-11-19T17:45:06;100411.88;;;12.35;72.38
76847;BME280;65813;49.546;8.644;2023-11-19T17:49:06;100405.09;;;12.31;72.74
76847;BME280;65813;49.546;8.644;2023-11-19T17:53:07;100410.44;;;12.31;73.41
76847;BME280;65813;49.546;8.644;2023-11-19T17:57:07;100413.09;;;12.20;73.77
76847;BME280;65813;49.546;8.644;2023-11-19T18:01:08;100427.66;;;12.15;74.32
76847;BME280;65813;49.546;8.644;2023-11-19T18:05:09;100429.38;;;12.17;74.41
76847;BME280;65813;49.546;8.644;2023-11-19T18:09:12;100450.00;;;12.14;73.18
76847;BME280;65813;49.546;8.644;2023-11-19T18:13:13;100438.84;;;12.09;73.71
76847;BME280;65813;49.546;8.644;2023-11-19T18:17:13;100437.84;;;12.10;74.05
76847;BME280;65813;49.546;8.644;2023-11-19T18:21:14;100445.25;;;12.07;74.44
76847;BME280;65813;49.546;8.644;2023-11-19T18:25:15;100454.88;;;12.09;73.08
76847;BME280;65813;49.546;8.644;2023-11-19T18:29:17;100460.31;;;12.08;73.38
76847;BME280;65813;49.546;8.644;2023-11-19T18:33:18;100454.97;;;12.08;73.29
76847;BME280;65813;49.546;8.644;2023-11-19T18:37:18;100463.34;;;12.14;72.78
76847;BME280;65813;49.546;8.644;2023-11-19T18:41:19;100457.28;;;12.01;74.10
76847;BME280;65813;49.546;8.644;2023-11-19T18:45:20;100466.38;;;11.99;74.67
76847;BME280;65813;49.546;8.644;2023-11-19T18:49:21;100455.34;;;12.14;74.03
76847;BME280;65813;49.546;8.644;2023-11-19T18:53:22;100462.72;;;12.00;75.23
76847;BME280;65813;49.546;8.644;2023-11-19T18:57:22;100474.03;;;11.92;75.07
76847;BME280;65813;49.546;8.644;2023-11-19T19:01:23;100471.22;;;11.94;73.99
76847;BME280;65813;49.546;8.644;2023-11-19T19:05:23;100458.72;;;11.94;74.85
76847;BME280;65813;49.546;8.644;2023-11-19T19:09:24;100454.50;;;12.03;72.66
76847;BME280;65813;49.546;8.644;2023-11-19T19:13:24;100454.09;;;11.96;73.32
76847;BME280;65813;49.546;8.644;2023-11-19T19:17:25;100462.09;;;11.96;73.08
76847;BME280;65813;49.546;8.644;2023-11-19T19:21:29;100451.44;;;12.07;71.68
76847;BME280;65813;49.546;8.644;2023-11-19T19:25:30;100460.31;;;12.08;71.62
76847;BME280;65813;49.546;8.644;2023-11-19T19:29:30;100466.75;;;12.05;72.12
76847;BME280;65813;49.546;8.644;2023-11-19T19:33:31;100476.56;;;11.94;73.26
76847;BME280;65813;49.546;8.644;2023-11-19T19:37:31;100467.13;;;12.12;71.81
76847;BME280;65813;49.546;8.644;2023-11-19T19:41:32;100452.91;;;12.11;71.43
76847;BME280;65813;49.546;8.644;2023-11-19T19:45:32;100452.19;;;12.09;71.47
76847;BME280;65813;49.546;8.644;2023-11-19T19:49:35;100455.09;;;12.06;71.79
76847;BME280;65813;49.546;8.644;2023-11-19T19:53:36;100456.91;;;11.95;72.00
76847;BME280;65813;49.546;8.644;2023-11-19T19:57:39;100464.31;;;11.91;72.38
76847;BME280;65813;49.546;8.644;2023-11-19T20:01:39;100481.53;;;11.87;72.59
76847;BME280;65813;49.546;8.644;2023-11-19T20:05:39;100466.13;;;11.91;72.01
76847;BME280;65813;49.546;8.644;2023-11-19T20:09:41;100469.41;;;11.94;71.14
76847;BME280;65813;49.546;8.644;2023-11-19T20:13:42;100473.16;;;11.92;72.09
76847;BME280;65813;49.546;8.644;2023-11-19T20:17:43;100450.25;;;11.89;72.05
76847;BME280;65813;49.546;8.644;2023-11-19T20:21:44;100454.59;;;11.90;72.25
76847;BME280;65813;49.546;8.644;2023-11-19T20:25:44;100464.31;;;12.02;71.00
76847;BME280;65813;49.546;8.644;2023-11-19T20:29:48;100473.75;;;11.84;72.59
76847;BME280;65813;49.546;8.644;2023-11-19T20:33:48;100475.69;;;11.82;72.47
76847;BME280;65813;49.546;8.644;2023-11-19T20:37:49;100483.34;;;11.87;71.71
76847;BME280;65813;49.546;8.644;2023-11-19T20:41:49;100493.94;;;11.99;71.06
76847;BME280;65813;49.546;8.644;2023-11-19T20:45:50;100496.22;;;11.93;70.36
76847;BME280;65813;49.546;8.644;2023-11-19T20:49:51;100492.94;;;11.89;70.41
76847;BME280;65813;49.546;8.644;2023-11-19T20:53:51;100494.03;;;11.98;70.29
76847;BME280;65813;49.546;8.644;2023-11-19T20:57:52;100482.75;;;11.94;70.74
76847;BME280;65813;49.546;8.644;2023-11-19T21:01:53;100500.34;;;11.86;71.43
76847;BME280;65813;49.546;8.644;2023-11-19T21:05:53;100496.44;;;11.90;70.50
76847;BME280;65813;49.546;8.644;2023-11-19T21:09:56;100495.81;;;11.86;70.21
76847;BME280;65813;49.546;8.644;2023-11-19T21:13:59;100481.28;;;11.90;69.67
76847;BME280;65813;49.546;8.644;2023-11-19T21:17:59;100468.44;;;11.95;69.55
76847;BME280;65813;49.546;8.644;2023-11-19T21:22:01;100475.59;;;12.17;68.27
76847;BME280;65813;49.546;8.644;2023-11-19T21:26:01;100475.84;;;12.03;69.27
76847;BME280;65813;49.546;8.644;2023-11-19T21:30:02;100474.75;;;11.94;69.43
76847;BME280;65813;49.546;8.644;2023-11-19T21:34:04;100461.66;;;12.02;68.97
76847;BME280;65813;49.546;8.644;2023-11-19T21:38:05;100469.13;;;11.86;70.39
76847;BME280;65813;49.546;8.644;2023-11-19T21:42:06;100475.69;;;11.93;69.25
76847;BME280;65813;49.546;8.644;2023-11-19T21:46:06;100474.88;;;11.93;69.81
76847;BME280;65813;49.546;8.644;2023-11-19T21:50:07;100469.63;;;11.91;70.54
76847;BME280;65813;49.546;8.644;2023-11-19T21:54:08;100464.56;;;11.99;69.48
76847;BME280;65813;49.546;8.644;2023-11-19T21:58:08;100462.72;;;12.00;70.00
76847;BME280;65813;49.546;8.644;2023-11-19T22:02:09;100454.09;;;11.96;70.09
76847;BME280;65813;49.546;8.644;2023-11-19T22:06:16;100467.94;;;12.01;69.76
76847;BME280;65813;49.546;8.644;2023-11-19T22:10:16;100471.09;;;11.95;70.68
76847;BME280;65813;49.546;8.644;2023-11-19T22:14:17;100461.75;;;11.90;70.97
